Time;durP1;ratioP1;P1;durP2;ratioP2;P2;SDS_P1;SDS_P2;PMS_P1;PMS_P2;Temp;Humidity;BMP_temperature;BMP_pressure;BME280_temperature;BME280_humidity;BME280_pressure;Samples;Min_cycle;Max_cycle;Signal;HPM_P1;HPM_P2
2022/10/08 00:00:56;;;;;;;0.70;0.60;;;;;;;;;;5086630;28;21003;-76
2022/10/08 00:03:24;;;;;;;0.70;0.60;;;;;;;;;;5083329;28;20432;-74
2022/10/08 00:05:54;;;;;;;0.70;0.60;;;;;;;;;;5090171;28;20476;-75
2022/10/08 00:08:22;;;;;;;0.80;0.80;;;;;;;;;;5088914;28;20510;-75
2022/10/08 00:10:51;;;;;;;0.80;0.80;;;;;;;;;;5073540;28;20532;-75
2022/10/08 00:13:17;;;;;;;0.70;0.70;;;;;;;;;;5056294;28;20446;-75
2022/10/08 00:15:44;;;;;;;0.70;0.60;;;;;;;;;;5073503;28;20451;-75
2022/10/08 00:18:10;;;;;;;0.70;0.70;;;;;;;;;;5086710;28;20512;-75
2022/10/08 00:20:37;;;;;;;0.70;0.70;;;;;;;;;;5084339;28;21053;-75
2022/10/08 00:23:04;;;;;;;0.90;0.90;;;;;;;;;;5082661;28;20553;-75
2022/10/08 00:25:36;;;;;;;0.70;0.60;;;;;;;;;;5081467;28;20451;-76
2022/10/08 00:28:04;;;;;;;0.70;0.70;;;;;;;;;;5078876;28;20441;-74
2022/10/08 00:30:33;;;;;;;0.80;0.70;;;;;;;;;;5077582;28;20447;-75
2022/10/08 00:33:01;;;;;;;0.90;0.80;;;;;;;;;;5075509;28;20482;-75
2022/10/08 00:35:27;;;;;;;0.73;0.70;;;;;;;;;;5074964;28;20495;-74
2022/10/08 00:37:54;;;;;;;1.53;1.07;;;;;;;;;;5059851;28;20469;-75
2022/10/08 00:40:20;;;;;;;0.70;0.60;;;;;;;;;;5079860;28;20487;-75
2022/10/08 00:42:50;;;;;;;0.70;0.60;;;;;;;;;;5068430;28;20459;-75
2022/10/08 00:45:17;;;;;;;0.70;0.60;;;;;;;;;;5090989;28;20830;-74
2022/10/08 00:47:45;;;;;;;0.70;0.60;;;;;;;;;;5091027;28;20429;-75
2022/10/08 00:50:14;;;;;;;0.70;0.60;;;;;;;;;;5089124;28;20477;-75
2022/10/08 00:52:43;;;;;;;0.70;0.60;;;;;;;;;;5084498;28;20435;-75
2022/10/08 00:55:14;;;;;;;0.73;0.70;;;;;;;;;;5088301;28;20453;-74
2022/10/08 00:57:48;;;;;;;0.70;0.70;;;;;;;;;;5071977;28;20464;-74
2022/10/08 01:00:25;;;;;;;0.70;0.60;;;;;;;;;;5060009;28;20460;-74
2022/10/08 01:02:57;;;;;;;0.70;0.60;;;;;;;;;;5085292;28;20453;-75
2022/10/08 01:05:38;;;;;;;0.80;0.80;;;;;;;;;;5097245;28;20492;-75
2022/10/08 01:08:13;;;;;;;1.10;1.00;;;;;;;;;;5061479;28;20542;-74
2022/10/08 01:10:45;;;;;;;0.70;0.60;;;;;;;;;;5088930;28;20460;-75
2022/10/08 01:13:16;;;;;;;0.70;0.60;;;;;;;;;;5090092;28;20432;-75
2022/10/08 01:15:49;;;;;;;8.67;1.87;;;;;;;;;;5081081;28;20448;-75
2022/10/08 01:18:21;;;;;;;0.70;0.50;;;;;;;;;;5088714;28;20530;-74
2022/10/08 01:20:58;;;;;;;0.70;0.60;;;;;;;;;;5085770;28;20484;-74
2022/10/08 01:23:57;;;;;;;0.70;0.60;;;;;;;;;;5088357;28;20419;-75
2022/10/08 01:26:35;;;;;;;0.70;0.60;;;;;;;;;;5037162;28;20497;-75
2022/10/08 01:29:07;;;;;;;0.70;0.60;;;;;;;;;;5079689;28;20545;-74
2022/10/08 01:31:47;;;;;;;1.17;1.07;;;;;;;;;;5065623;28;20451;-74
2022/10/08 01:34:23;;;;;;;0.70;0.60;;;;;;;;;;5064989;28;20556;-74
2022/10/08 01:36:54;;;;;;;0.80;0.70;;;;;;;;;;5086319;28;20447;-75
2022/10/08 01:39:26;;;;;;;0.70;0.60;;;;;;;;;;5063898;28;20434;-74
2022/10/08 01:41:58;;;;;;;0.70;0.70;;;;;;;;;;5066979;28;20454;-74
2022/10/08 01:44:32;;;;;;;0.77;0.70;;;;;;;;;;5087094;28;20456;-74
2022/10/08 01:47:04;;;;;;;0.70;0.60;;;;;;;;;;5086240;28;20424;-74
2022/10/08 01:49:38;;;;;;;0.80;0.77;;;;;;;;;;5070794;28;20454;-74
2022/10/08 01:52:13;;;;;;;0.70;0.60;;;;;;;;;;5085368;28;20493;-75
2022/10/08 01:54:47;;;;;;;0.70;0.60;;;;;;;;;;5058272;28;20498;-74
2022/10/08 01:57:17;;;;;;;0.70;0.60;;;;;;;;;;5075849;28;20547;-73
2022/10/08 01:59:51;;;;;;;0.70;0.60;;;;;;;;;;5076439;28;20458;-74
2022/10/08 02:02:20;;;;;;;0.77;0.70;;;;;;;;;;5057025;28;20484;-74
2022/10/08 02:04:48;;;;;;;0.83;0.77;;;;;;;;;;5068890;28;20456;-74
2022/10/08 02:07:30;;;;;;;0.70;0.60;;;;;;;;;;5066391;28;20566;-75
2022/10/08 02:10:04;;;;;;;0.70;0.70;;;;;;;;;;5079721;28;20547;-75
2022/10/08 02:12:39;;;;;;;0.70;0.70;;;;;;;;;;5056646;28;20920;-74
2022/10/08 02:15:10;;;;;;;1.73;1.63;;;;;;;;;;5057942;28;20516;-74
2022/10/08 02:17:42;;;;;;;0.70;0.60;;;;;;;;;;5081890;28;20494;-74
2022/10/08 02:20:15;;;;;;;0.70;0.70;;;;;;;;;;5061410;28;20810;-74
2022/10/08 02:22:48;;;;;;;0.70;0.70;;;;;;;;;;5069432;28;20802;-73
2022/10/08 02:25:20;;;;;;;0.70;0.67;;;;;;;;;;5058057;28;20450;-75
2022/10/08 02:27:50;;;;;;;0.70;0.60;;;;;;;;;;5084710;28;20447;-73
2022/10/08 02:30:19;;;;;;;0.70;0.60;;;;;;;;;;5078587;28;20464;-73
2022/10/08 02:32:49;;;;;;;0.70;0.60;;;;;;;;;;5080546;28;20455;-72
2022/10/08 02:35:21;;;;;;;0.70;0.60;;;;;;;;;;5065202;28;20548;-75
2022/10/08 02:37:52;;;;;;;0.80;0.77;;;;;;;;;;5082160;28;20544;-78
2022/10/08 02:40:19;;;;;;;0.70;0.70;;;;;;;;;;5055903;28;20551;-76
2022/10/08 02:42:48;;;;;;;0.70;0.60;;;;;;;;;;5081903;28;20461;-76
2022/10/08 02:45:17;;;;;;;0.70;0.70;;;;;;;;;;5084301;28;20869;-75
2022/10/08 02:47:49;;;;;;;0.70;0.60;;;;;;;;;;5088447;28;20521;-76
2022/10/08 02:50:18;;;;;;;0.70;0.60;;;;;;;;;;5074905;28;20438;-75
2022/10/08 02:52:46;;;;;;;0.70;0.60;;;;;;;;;;5086373;28;20440;-75
2022/10/08 02:55:18;;;;;;;0.70;0.60;;;;;;;;;;5074793;28;20454;-75
2022/10/08 02:57:47;;;;;;;0.70;0.60;;;;;;;;;;5065002;28;20483;-76
2022/10/08 03:00:14;;;;;;;0.70;0.60;;;;;;;;;;5085260;28;20494;-77
2022/10/08 03:02:42;;;;;;;0.70;0.60;;;;;;;;;;5082571;28;20485;-75
2022/10/08 03:05:14;;;;;;;0.70;0.70;;;;;;;;;;5067948;28;20564;-76
2022/10/08 03:07:42;;;;;;;5.03;2.30;;;;;;;;;;5081902;28;20550;-75
2022/10/08 03:10:09;;;;;;;0.70;0.60;;;;;;;;;;5080023;28;20483;-75
2022/10/08 03:12:35;;;;;;;0.70;0.60;;;;;;;;;;5071975;28;20803;-76
2022/10/08 03:15:03;;;;;;;0.77;0.70;;;;;;;;;;5082621;28;20451;-76
2022/10/08 03:17:32;;;;;;;0.70;0.60;;;;;;;;;;5073121;28;20447;-75
2022/10/08 03:19:59;;;;;;;0.80;0.70;;;;;;;;;;5079331;28;20430;-75
2022/10/08 03:22:28;;;;;;;0.80;0.60;;;;;;;;;;5082666;28;20459;-75
2022/10/08 03:24:55;;;;;;;0.70;0.60;;;;;;;;;;5087949;28;20436;-75
2022/10/08 03:27:22;;;;;;;1.10;0.90;;;;;;;;;;5085528;28;20435;-76
2022/10/08 03:29:49;;;;;;;0.70;0.60;;;;;;;;;;5080225;28;20974;-75
2022/10/08 03:32:15;;;;;;;0.70;0.60;;;;;;;;;;5080068;28;20855;-75
2022/10/08 03:34:42;;;;;;;0.70;0.70;;;;;;;;;;5084418;28;20439;-75
2022/10/08 03:37:09;;;;;;;0.70;0.60;;;;;;;;;;5078880;28;20462;-75
2022/10/08 03:39:37;;;;;;;0.70;0.70;;;;;;;;;;5081426;28;20466;-75
2022/10/08 03:42:03;;;;;;;0.70;0.60;;;;;;;;;;5078870;28;20971;-75
2022/10/08 03:44:30;;;;;;;0.70;0.60;;;;;;;;;;5075339;28;20445;-75
2022/10/08 03:46:57;;;;;;;0.70;0.60;;;;;;;;;;5064435;28;20481;-75
2022/10/08 03:49:24;;;;;;;0.70;0.63;;;;;;;;;;5085822;28;20446;-75
2022/10/08 03:51:50;;;;;;;0.67;0.50;;;;;;;;;;5074440;28;20480;-74
2022/10/08 03:54:17;;;;;;;0.70;0.60;;;;;;;;;;5061432;28;20974;-76
2022/10/08 03:56:45;;;;;;;1.10;1.00;;;;;;;;;;5066883;28;20450;-75
2022/10/08 03:59:11;;;;;;;0.70;0.60;;;;;;;;;;5083164;28;20473;-75
2022/10/08 04:01:38;;;;;;;1.80;1.10;;;;;;;;;;5084268;28;20455;-76
2022/10/08 04:04:05;;;;;;;0.70;0.70;;;;;;;;;;5056239;28;20817;-76
2022/10/08 04:06:31;;;;;;;0.70;0.60;;;;;;;;;;5071563;28;20494;-75
2022/10/08 04:09:00;;;;;;;0.70;0.60;;;;;;;;;;5088413;28;20439;-75
2022/10/08 04:11:27;;;;;;;0.70;0.60;;;;;;;;;;5091953;28;20429;-75
2022/10/08 04:13:56;;;;;;;0.70;0.60;;;;;;;;;;5061887;28;20484;-76
2022/10/08 04:16:23;;;;;;;0.70;0.60;;;;;;;;;;5080058;28;20494;-75
2022/10/08 04:18:50;;;;;;;0.70;0.60;;;;;;;;;;5076816;28;20573;-77
2022/10/08 04:21:18;;;;;;;0.70;0.60;;;;;;;;;;5102346;28;20477;-75
2022/10/08 04:23:45;;;;;;;0.70;0.60;;;;;;;;;;5080530;28;20465;-75
2022/10/08 04:26:12;;;;;;;0.70;0.60;;;;;;;;;;5064256;28;20453;-74
2022/10/08 04:28:40;;;;;;;0.70;0.60;;;;;;;;;;5079487;28;20432;-75
2022/10/08 04:31:09;;;;;;;0.70;0.70;;;;;;;;;;5084657;28;20538;-74
2022/10/08 04:33:36;;;;;;;0.70;0.60;;;;;;;;;;5052908;28;21013;-74
2022/10/08 04:36:05;;;;;;;0.77;0.70;;;;;;;;;;5081830;28;20447;-74
2022/10/08 04:38:32;;;;;;;0.70;0.60;;;;;;;;;;5074717;28;20472;-75
2022/10/08 04:41:01;;;;;;;1.03;1.03;;;;;;;;;;5079993;28;20453;-76
2022/10/08 04:43:27;;;;;;;0.70;0.60;;;;;;;;;;5078970;28;20954;-75
2022/10/08 04:45:54;;;;;;;0.70;0.70;;;;;;;;;;5077217;28;20481;-74
2022/10/08 04:48:22;;;;;;;0.70;0.70;;;;;;;;;;5079597;28;20426;-75
2022/10/08 04:50:52;;;;;;;1.00;0.90;;;;;;;;;;5078357;28;20473;-75
2022/10/08 04:53:20;;;;;;;0.70;0.60;;;;;;;;;;5073447;28;20930;-74
2022/10/08 04:55:46;;;;;;;0.70;0.70;;;;;;;;;;5083679;28;20433;-74
2022/10/08 04:58:14;;;;;;;0.70;0.70;;;;;;;;;;5083220;28;20441;-74
2022/10/08 05:00:40;;;;;;;0.70;0.70;;;;;;;;;;5060338;28;20881;-74
2022/10/08 05:03:07;;;;;;;0.80;0.80;;;;;;;;;;5080358;28;20804;-74
2022/10/08 05:05:38;;;;;;;0.70;0.70;;;;;;;;;;5075917;28;20460;-72
2022/10/08 05:08:05;;;;;;;0.70;0.70;;;;;;;;;;5076132;28;20968;-73
2022/10/08 05:10:32;;;;;;;0.70;0.60;;;;;;;;;;5073733;28;20505;-72
2022/10/08 05:12:59;;;;;;;0.70;0.70;;;;;;;;;;5082482;28;20438;-73
2022/10/08 05:15:26;;;;;;;0.70;0.60;;;;;;;;;;5078223;28;20462;-72
2022/10/08 05:17:52;;;;;;;0.70;0.60;;;;;;;;;;5081428;28;20488;-72
2022/10/08 05:20:19;;;;;;;1.40;1.30;;;;;;;;;;5079856;28;20472;-73
2022/10/08 05:22:50;;;;;;;0.70;0.70;;;;;;;;;;5081032;28;20437;-73
2022/10/08 05:25:18;;;;;;;0.70;0.60;;;;;;;;;;5082946;28;20472;-72
2022/10/08 05:27:44;;;;;;;0.70;0.67;;;;;;;;;;5089291;28;20434;-73
2022/10/08 05:30:11;;;;;;;1.20;1.10;;;;;;;;;;5081293;28;20494;-73
2022/10/08 05:32:38;;;;;;;0.70;0.70;;;;;;;;;;5080386;28;20469;-72
2022/10/08 05:35:05;;;;;;;0.70;0.57;;;;;;;;;;5073063;28;20453;-72
2022/10/08 05:37:32;;;;;;;0.60;0.53;;;;;;;;;;5076307;28;20429;-72
2022/10/08 05:40:00;;;;;;;0.83;0.80;;;;;;;;;;5078351;28;20477;-73
2022/10/08 05:42:27;;;;;;;0.70;0.60;;;;;;;;;;5084279;28;20482;-72
2022/10/08 05:44:54;;;;;;;0.70;0.70;;;;;;;;;;5085819;28;20437;-73
2022/10/08 05:47:21;;;;;;;2.17;1.60;;;;;;;;;;5083607;28;20436;-72
2022/10/08 05:49:47;;;;;;;0.70;0.60;;;;;;;;;;5067858;28;20475;-73
2022/10/08 05:52:14;;;;;;;0.70;0.60;;;;;;;;;;5078632;28;20824;-74
2022/10/08 05:54:41;;;;;;;0.70;0.60;;;;;;;;;;5081997;28;20450;-72
2022/10/08 05:57:09;;;;;;;0.70;0.70;;;;;;;;;;5069719;28;20984;-72
2022/10/08 05:59:35;;;;;;;0.70;0.60;;;;;;;;;;5079951;28;20823;-72
2022/10/08 06:02:02;;;;;;;0.70;0.67;;;;;;;;;;5076725;28;20459;-72
2022/10/08 06:04:29;;;;;;;0.83;0.80;;;;;;;;;;5073306;28;20484;-71
2022/10/08 06:06:55;;;;;;;1.67;1.57;;;;;;;;;;5080195;28;20564;-72
2022/10/08 06:09:23;;;;;;;0.83;0.83;;;;;;;;;;5084473;28;20450;-73
2022/10/08 06:11:50;;;;;;;1.17;1.07;;;;;;;;;;5086001;28;20433;-72
2022/10/08 06:14:23;;;;;;;1.73;1.63;;;;;;;;;;5084967;28;20611;-72
2022/10/08 06:16:49;;;;;;;0.80;0.80;;;;;;;;;;5082151;28;20446;-73
2022/10/08 06:19:16;;;;;;;0.70;0.60;;;;;;;;;;5084037;28;20882;-72
2022/10/08 06:21:43;;;;;;;0.70;0.60;;;;;;;;;;5084754;28;20462;-73
2022/10/08 06:24:11;;;;;;;0.70;0.63;;;;;;;;;;5071085;28;20778;-72
2022/10/08 06:26:38;;;;;;;0.70;0.60;;;;;;;;;;5074682;28;20498;-73
2022/10/08 06:29:06;;;;;;;0.70;0.60;;;;;;;;;;5088279;28;20425;-74
2022/10/08 06:31:35;;;;;;;1.00;1.00;;;;;;;;;;5084669;28;20430;-72
2022/10/08 06:34:03;;;;;;;0.70;0.70;;;;;;;;;;5080360;28;20987;-73
2022/10/08 06:36:31;;;;;;;0.67;0.60;;;;;;;;;;5083322;28;20451;-73
2022/10/08 06:38:58;;;;;;;0.70;0.60;;;;;;;;;;5084274;28;20488;-73
2022/10/08 06:41:26;;;;;;;0.60;0.60;;;;;;;;;;5082399;28;20500;-72
2022/10/08 06:43:53;;;;;;;0.70;0.60;;;;;;;;;;5069013;28;20438;-72
2022/10/08 06:46:20;;;;;;;0.70;0.63;;;;;;;;;;5087754;28;20474;-72
2022/10/08 06:48:49;;;;;;;0.70;0.63;;;;;;;;;;5090249;28;20456;-74
2022/10/08 06:51:16;;;;;;;0.80;0.80;;;;;;;;;;5059420;28;20486;-72
2022/10/08 06:53:47;;;;;;;1.30;1.20;;;;;;;;;;5051651;28;20440;-73
2022/10/08 06:56:16;;;;;;;0.70;0.70;;;;;;;;;;5078418;28;20511;-72
2022/10/08 06:58:44;;;;;;;0.73;0.73;;;;;;;;;;5061497;28;20447;-72
2022/10/08 07:01:12;;;;;;;0.70;0.60;;;;;;;;;;5079951;28;20537;-73
2022/10/08 07:03:39;;;;;;;0.70;0.60;;;;;;;;;;5086306;28;20472;-75
2022/10/08 07:06:08;;;;;;;0.60;0.60;;;;;;;;;;5080880;28;20472;-73
2022/10/08 07:08:35;;;;;;;1.07;0.97;;;;;;;;;;5083520;28;20851;-73
2022/10/08 07:11:02;;;;;;;0.90;0.90;;;;;;;;;;5083816;28;20476;-72
2022/10/08 07:13:29;;;;;;;0.90;0.90;;;;;;;;;;5085764;28;20438;-74
2022/10/08 07:15:59;;;;;;;0.70;0.60;;;;;;;;;;5090398;28;20423;-73
2022/10/08 07:18:26;;;;;;;0.70;0.60;;;;;;;;;;5081764;28;20803;-73
2022/10/08 07:20:54;;;;;;;0.70;0.70;;;;;;;;;;5067840;28;20475;-74
2022/10/08 07:23:23;;;;;;;1.03;1.00;;;;;;;;;;5058677;28;20461;-75
2022/10/08 07:25:56;;;;;;;0.80;0.80;;;;;;;;;;5082108;28;20469;-74
2022/10/08 07:28:24;;;;;;;1.43;1.23;;;;;;;;;;5083447;28;20454;-74
2022/10/08 07:30:51;;;;;;;1.00;1.00;;;;;;;;;;5083544;28;20451;-73
2022/10/08 07:33:17;;;;;;;0.80;0.80;;;;;;;;;;5083078;28;20457;-76
2022/10/08 07:35:44;;;;;;;0.70;0.60;;;;;;;;;;5082353;28;20557;-74
2022/10/08 07:38:11;;;;;;;1.33;1.23;;;;;;;;;;5067927;28;20443;-74
2022/10/08 07:40:40;;;;;;;2.20;1.67;;;;;;;;;;5070950;28;21080;-74
2022/10/08 07:43:06;;;;;;;1.90;1.80;;;;;;;;;;5072845;28;20997;-73
2022/10/08 07:45:33;;;;;;;0.70;0.60;;;;;;;;;;5047121;28;20452;-74
2022/10/08 07:48:00;;;;;;;0.80;0.80;;;;;;;;;;5072079;28;20462;-75
2022/10/08 07:50:26;;;;;;;0.70;0.67;;;;;;;;;;5075607;28;20450;-74
2022/10/08 07:52:53;;;;;;;0.70;0.70;;;;;;;;;;5079979;28;20450;-76
2022/10/08 07:55:20;;;;;;;0.87;0.80;;;;;;;;;;5069216;28;20830;-74
2022/10/08 07:57:49;;;;;;;0.70;0.70;;;;;;;;;;5077069;28;20928;-74
2022/10/08 08:00:16;;;;;;;1.27;1.17;;;;;;;;;;5064805;28;20981;-74
2022/10/08 08:02:48;;;;;;;1.63;1.00;;;;;;;;;;5079195;28;20426;-75
2022/10/08 08:05:15;;;;;;;0.70;0.60;;;;;;;;;;5083128;28;20441;-74
2022/10/08 08:07:42;;;;;;;0.70;0.60;;;;;;;;;;5081060;28;20902;-73
2022/10/08 08:10:09;;;;;;;0.70;0.70;;;;;;;;;;5075410;28;20425;-74
2022/10/08 08:12:37;;;;;;;1.10;1.07;;;;;;;;;;5080641;28;20481;-75
2022/10/08 08:15:06;;;;;;;0.70;0.60;;;;;;;;;;5073905;28;20420;-75
2022/10/08 08:17:33;;;;;;;0.70;0.70;;;;;;;;;;5068502;28;20437;-75
2022/10/08 08:20:00;;;;;;;1.00;0.90;;;;;;;;;;5083329;28;20459;-74
2022/10/08 08:22:27;;;;;;;1.90;1.70;;;;;;;;;;5080467;28;20557;-74
2022/10/08 08:24:54;;;;;;;1.17;1.00;;;;;;;;;;5078189;28;20498;-75
2022/10/08 08:27:21;;;;;;;0.70;0.70;;;;;;;;;;5081326;28;20454;-74
2022/10/08 08:29:47;;;;;;;1.40;1.30;;;;;;;;;;5082978;28;20437;-74
2022/10/08 08:32:16;;;;;;;0.80;0.80;;;;;;;;;;5081985;28;20479;-76
2022/10/08 08:34:44;;;;;;;0.70;0.70;;;;;;;;;;5085401;28;20454;-74
2022/10/08 08:37:10;;;;;;;0.87;0.87;;;;;;;;;;5088800;28;20456;-75
2022/10/08 08:39:37;;;;;;;0.73;0.73;;;;;;;;;;5083356;28;20465;-74
2022/10/08 08:42:21;;;;;;;0.70;0.70;;;;;;;;;;5075395;28;20459;-74
2022/10/08 08:44:52;;;;;;;0.90;0.90;;;;;;;;;;5074424;28;20651;-74
2022/10/08 08:47:22;;;;;;;0.70;0.70;;;;;;;;;;5061516;28;20455;-75
2022/10/08 08:49:50;;;;;;;0.70;0.70;;;;;;;;;;5080184;28;20448;-74
2022/10/08 08:52:19;;;;;;;1.33;1.20;;;;;;;;;;5066567;28;20472;-75
2022/10/08 08:54:48;;;;;;;0.73;0.70;;;;;;;;;;5081828;28;20810;-76
2022/10/08 08:57:22;;;;;;;1.87;1.77;;;;;;;;;;5063709;28;20502;-74
2022/10/08 08:59:55;;;;;;;0.77;0.73;;;;;;;;;;5081728;28;20467;-76
2022/10/08 09:02:25;;;;;;;0.80;0.77;;;;;;;;;;5080818;28;20459;-75
2022/10/08 09:04:54;;;;;;;0.70;0.67;;;;;;;;;;5081270;28;20492;-74
2022/10/08 09:07:22;;;;;;;0.70;0.70;;;;;;;;;;5094124;28;20467;-75
2022/10/08 09:09:50;;;;;;;0.70;0.63;;;;;;;;;;5095780;28;20454;-75
2022/10/08 09:12:22;;;;;;;0.70;0.67;;;;;;;;;;5078574;28;21001;-74
2022/10/08 09:14:51;;;;;;;0.80;0.77;;;;;;;;;;5066543;28;20461;-75
2022/10/08 09:17:19;;;;;;;0.73;0.70;;;;;;;;;;5066704;28;20463;-76
2022/10/08 09:19:47;;;;;;;1.00;0.90;;;;;;;;;;5086640;28;20461;-75
2022/10/08 09:22:24;;;;;;;0.73;0.70;;;;;;;;;;5083150;28;20476;-76
2022/10/08 09:24:53;;;;;;;0.80;0.70;;;;;;;;;;5083082;28;20495;-74
2022/10/08 09:27:20;;;;;;;0.77;0.70;;;;;;;;;;5080724;28;20476;-75
2022/10/08 09:29:51;;;;;;;0.70;0.70;;;;;;;;;;5102253;28;20434;-76
2022/10/08 09:32:19;;;;;;;2.20;2.10;;;;;;;;;;5086215;28;20477;-74
2022/10/08 09:34:47;;;;;;;0.90;0.90;;;;;;;;;;5066145;28;20438;-76
2022/10/08 09:37:17;;;;;;;0.80;0.80;;;;;;;;;;5084407;28;20450;-77
2022/10/08 09:40:04;;;;;;;0.70;0.70;;;;;;;;;;5079699;28;20465;-75
2022/10/08 09:42:31;;;;;;;0.77;0.70;;;;;;;;;;5072662;28;20462;-75
2022/10/08 09:45:02;;;;;;;0.70;0.70;;;;;;;;;;5066622;28;20452;-75
2022/10/08 09:47:29;;;;;;;0.80;0.80;;;;;;;;;;5088080;28;20810;-75
2022/10/08 09:50:05;;;;;;;0.70;0.60;;;;;;;;;;5076825;28;20453;-75
2022/10/08 09:52:33;;;;;;;0.70;0.60;;;;;;;;;;5078357;28;20429;-74
2022/10/08 09:55:01;;;;;;;0.80;0.70;;;;;;;;;;5082327;28;20451;-75
2022/10/08 09:57:28;;;;;;;0.70;0.70;;;;;;;;;;5091663;28;20429;-76
2022/10/08 09:59:57;;;;;;;1.10;1.00;;;;;;;;;;5064409;28;20456;-75
2022/10/08 10:02:29;;;;;;;0.80;0.70;;;;;;;;;;5094980;28;20481;-76
2022/10/08 10:04:56;;;;;;;0.70;0.70;;;;;;;;;;5065019;28;20538;-75
2022/10/08 10:07:36;;;;;;;0.80;0.73;;;;;;;;;;5061983;28;20477;-75
2022/10/08 10:10:05;;;;;;;0.70;0.70;;;;;;;;;;5080110;28;20463;-74
2022/10/08 10:12:34;;;;;;;0.70;0.70;;;;;;;;;;5087193;28;20457;-76
2022/10/08 10:15:03;;;;;;;0.80;0.70;;;;;;;;;;5087380;28;20427;-75
2022/10/08 10:17:33;;;;;;;0.80;0.80;;;;;;;;;;5082685;28;20493;-75
2022/10/08 10:20:03;;;;;;;0.80;0.73;;;;;;;;;;5085201;28;20465;-76
2022/10/08 10:22:33;;;;;;;0.80;0.70;;;;;;;;;;5087803;28;20462;-75
2022/10/08 10:25:02;;;;;;;0.80;0.80;;;;;;;;;;5082670;28;20810;-74
2022/10/08 10:27:31;;;;;;;0.80;0.70;;;;;;;;;;5057808;28;20500;-75
2022/10/08 10:30:02;;;;;;;0.80;0.80;;;;;;;;;;5075837;28;20964;-75
2022/10/08 10:32:33;;;;;;;0.80;0.80;;;;;;;;;;5087802;28;20822;-76
2022/10/08 10:35:03;;;;;;;0.70;0.70;;;;;;;;;;5090609;28;20431;-76
2022/10/08 10:37:34;;;;;;;0.80;0.73;;;;;;;;;;5088899;28;20962;-75
2022/10/08 10:40:15;;;;;;;0.77;0.70;;;;;;;;;;5084420;28;20484;-75
2022/10/08 10:42:47;;;;;;;0.80;0.70;;;;;;;;;;5084405;28;20462;-75
2022/10/08 10:45:17;;;;;;;2.00;1.00;;;;;;;;;;5066687;28;20462;-76
2022/10/08 10:47:44;;;;;;;0.80;0.80;;;;;;;;;;5065973;28;20489;-76
2022/10/08 10:50:11;;;;;;;0.77;0.70;;;;;;;;;;5089205;28;20479;-77
2022/10/08 10:52:44;;;;;;;1.00;0.97;;;;;;;;;;5068678;28;20478;-75
2022/10/08 10:55:19;;;;;;;1.20;1.10;;;;;;;;;;5079136;28;20506;-76
2022/10/08 10:57:52;;;;;;;0.80;0.70;;;;;;;;;;5080792;28;20446;-75
2022/10/08 11:00:21;;;;;;;0.80;0.80;;;;;;;;;;5087136;28;21047;-75
2022/10/08 11:02:50;;;;;;;0.80;0.80;;;;;;;;;;5072171;28;20450;-76
2022/10/08 11:05:20;;;;;;;0.70;0.67;;;;;;;;;;5080382;28;20433;-76
2022/10/08 11:07:55;;;;;;;0.80;0.70;;;;;;;;;;5085896;28;20445;-76
2022/10/08 11:10:29;;;;;;;0.80;0.73;;;;;;;;;;5082984;28;20456;-76
2022/10/08 11:13:00;;;;;;;0.80;0.80;;;;;;;;;;5084484;28;20430;-76
2022/10/08 11:15:31;;;;;;;0.70;0.70;;;;;;;;;;5083060;28;20446;-76
2022/10/08 11:18:06;;;;;;;0.70;0.70;;;;;;;;;;5083143;28;20443;-77
2022/10/08 11:20:42;;;;;;;0.70;0.70;;;;;;;;;;5056621;28;20485;-77
2022/10/08 11:23:14;;;;;;;0.70;0.70;;;;;;;;;;5075384;28;20440;-77
2022/10/08 11:25:46;;;;;;;0.70;0.70;;;;;;;;;;5088177;28;20524;-76
2022/10/08 11:28:38;;;;;;;0.80;0.80;;;;;;;;;;5074813;28;20482;-75
2022/10/08 11:31:09;;;;;;;0.70;0.70;;;;;;;;;;5080232;28;20435;-77
2022/10/08 11:33:37;;;;;;;0.80;0.80;;;;;;;;;;5085653;28;20995;-75
2022/10/08 11:36:09;;;;;;;0.80;0.70;;;;;;;;;;5083716;28;20465;-75
2022/10/08 11:38:39;;;;;;;0.80;0.70;;;;;;;;;;5062629;28;20865;-75
2022/10/08 11:41:12;;;;;;;0.80;0.80;;;;;;;;;;5087478;28;20464;-75
2022/10/08 11:43:41;;;;;;;0.70;0.70;;;;;;;;;;5079943;28;20488;-76
2022/10/08 11:46:18;;;;;;;0.70;0.70;;;;;;;;;;5069809;28;20778;-76
2022/10/08 11:48:45;;;;;;;0.70;0.60;;;;;;;;;;5079869;28;20459;-76
2022/10/08 11:51:32;;;;;;;0.80;0.70;;;;;;;;;;5087237;28;20462;-75
2022/10/08 11:54:02;;;;;;;0.70;0.70;;;;;;;;;;5086103;28;20494;-75
2022/10/08 11:56:32;;;;;;;0.77;0.70;;;;;;;;;;5088558;28;20557;-76
2022/10/08 11:59:05;;;;;;;0.80;0.70;;;;;;;;;;5058436;28;20456;-76
2022/10/08 12:01:32;;;;;;;0.80;0.70;;;;;;;;;;5084259;28;20506;-75
2022/10/08 12:04:03;;;;;;;0.80;0.80;;;;;;;;;;5082289;28;20431;-75
2022/10/08 12:06:34;;;;;;;0.80;0.73;;;;;;;;;;5084032;28;20809;-76
2022/10/08 12:09:02;;;;;;;0.80;0.77;;;;;;;;;;5054925;28;20858;-77
2022/10/08 12:11:44;;;;;;;0.90;0.90;;;;;;;;;;5083862;28;20430;-75
2022/10/08 12:14:29;;;;;;;0.70;0.60;;;;;;;;;;5086062;28;20449;-77
2022/10/08 12:17:10;;;;;;;0.80;0.70;;;;;;;;;;5088800;28;20456;-76
2022/10/08 12:19:58;;;;;;;0.70;0.60;;;;;;;;;;5091018;28;20482;-77
2022/10/08 12:22:41;;;;;;;0.70;0.70;;;;;;;;;;5087453;28;20473;-77
2022/10/08 12:25:23;;;;;;;0.80;0.80;;;;;;;;;;5083354;28;20997;-75
2022/10/08 12:27:50;;;;;;;0.70;0.70;;;;;;;;;;5061681;28;20544;-75
2022/10/08 12:30:16;;;;;;;0.70;0.70;;;;;;;;;;5068746;28;20445;-76
2022/10/08 12:32:51;;;;;;;0.80;0.70;;;;;;;;;;5081195;28;20476;-77
2022/10/08 12:35:23;;;;;;;0.70;0.60;;;;;;;;;;5064685;28;20591;-76
2022/10/08 12:38:04;;;;;;;0.80;0.80;;;;;;;;;;5088368;28;20440;-75
2022/10/08 12:40:33;;;;;;;0.80;0.70;;;;;;;;;;5072032;28;20461;-77
2022/10/08 12:43:06;;;;;;;0.70;0.67;;;;;;;;;;5092547;28;20470;-79
2022/10/08 12:45:38;;;;;;;0.90;0.80;;;;;;;;;;5089541;28;20465;-77
2022/10/08 12:48:11;;;;;;;0.80;0.70;;;;;;;;;;5070036;28;20529;-77
2022/10/08 12:50:43;;;;;;;0.80;0.80;;;;;;;;;;5086329;28;20482;-76
2022/10/08 12:53:12;;;;;;;0.70;0.60;;;;;;;;;;5063211;28;20492;-77
2022/10/08 12:55:44;;;;;;;0.83;0.83;;;;;;;;;;5082706;28;20431;-75
2022/10/08 12:58:14;;;;;;;0.80;0.70;;;;;;;;;;5082378;28;20445;-73
2022/10/08 13:00:44;;;;;;;0.80;0.80;;;;;;;;;;5061143;28;20446;-76
2022/10/08 13:03:13;;;;;;;0.80;0.80;;;;;;;;;;5083103;28;20527;-77
2022/10/08 13:05:44;;;;;;;0.80;0.80;;;;;;;;;;5052764;28;20471;-76
2022/10/08 13:08:24;;;;;;;0.70;0.70;;;;;;;;;;5069484;28;20476;-76
2022/10/08 13:10:51;;;;;;;0.80;0.70;;;;;;;;;;5073448;28;20446;-79
2022/10/08 13:13:32;;;;;;;0.70;0.70;;;;;;;;;;5073260;28;20484;-76
2022/10/08 13:15:59;;;;;;;0.80;0.70;;;;;;;;;;5054630;28;20537;-76
2022/10/08 13:18:29;;;;;;;0.77;0.73;;;;;;;;;;5086287;28;20430;-74
2022/10/08 13:20:56;;;;;;;0.80;0.70;;;;;;;;;;5057029;28;20833;-75
2022/10/08 13:23:25;;;;;;;1.07;1.00;;;;;;;;;;5083078;28;20432;-77
2022/10/08 13:26:18;;;;;;;0.77;0.70;;;;;;;;;;5079944;28;20430;-78
2022/10/08 13:28:44;;;;;;;0.70;0.70;;;;;;;;;;5078518;28;20494;-74
2022/10/08 13:31:26;;;;;;;0.80;0.80;;;;;;;;;;5078017;28;20447;-74
2022/10/08 13:33:54;;;;;;;0.80;0.70;;;;;;;;;;5083553;28;20446;-75
2022/10/08 13:36:22;;;;;;;0.80;0.70;;;;;;;;;;5070894;28;21032;-77
2022/10/08 13:38:49;;;;;;;0.80;0.70;;;;;;;;;;5074930;28;20470;-74
2022/10/08 13:41:24;;;;;;;0.80;0.70;;;;;;;;;;5055179;28;20445;-76
2022/10/08 13:43:51;;;;;;;1.20;1.10;;;;;;;;;;5083264;28;20407;-77
2022/10/08 13:46:17;;;;;;;0.80;0.70;;;;;;;;;;5082720;28;20480;-74
2022/10/08 13:48:45;;;;;;;0.80;0.80;;;;;;;;;;5083124;28;20515;-76
2022/10/08 13:51:13;;;;;;;0.70;0.60;;;;;;;;;;5085397;28;20450;-77
2022/10/08 13:53:44;;;;;;;1.20;1.00;;;;;;;;;;5086561;28;20511;-79
2022/10/08 13:56:13;;;;;;;1.37;1.27;;;;;;;;;;5082266;28;20467;-76
2022/10/08 13:58:40;;;;;;;0.70;0.70;;;;;;;;;;5092257;28;20426;-75
2022/10/08 14:01:07;;;;;;;0.73;0.70;;;;;;;;;;5085661;28;20561;-75
2022/10/08 14:03:33;;;;;;;0.70;0.70;;;;;;;;;;5084580;28;20469;-75
2022/10/08 14:06:00;;;;;;;0.80;0.80;;;;;;;;;;5093058;28;20572;-78
2022/10/08 14:08:28;;;;;;;0.80;0.80;;;;;;;;;;5090798;28;20812;-76
2022/10/08 14:10:57;;;;;;;0.80;0.77;;;;;;;;;;5090399;28;20496;-76
2022/10/08 14:13:24;;;;;;;0.90;0.80;;;;;;;;;;5088000;28;20413;-76
2022/10/08 14:15:50;;;;;;;0.77;0.70;;;;;;;;;;5080748;28;20428;-76
2022/10/08 14:18:17;;;;;;;0.80;0.70;;;;;;;;;;5084277;28;20737;-76
2022/10/08 14:20:44;;;;;;;0.77;0.70;;;;;;;;;;5088197;28;20556;-76
2022/10/08 14:23:11;;;;;;;0.70;0.60;;;;;;;;;;5084922;28;20434;-75
2022/10/08 14:25:39;;;;;;;0.70;0.70;;;;;;;;;;5081823;28;20454;-76
2022/10/08 14:28:06;;;;;;;0.80;0.70;;;;;;;;;;5088855;28;20466;-76
2022/10/08 14:30:33;;;;;;;0.80;0.70;;;;;;;;;;5077663;28;20458;-76
2022/10/08 14:33:00;;;;;;;0.80;0.70;;;;;;;;;;5093396;28;20452;-77
2022/10/08 14:35:27;;;;;;;0.70;0.70;;;;;;;;;;5088550;28;20568;-76
2022/10/08 14:37:55;;;;;;;0.80;0.70;;;;;;;;;;5071881;28;20423;-75
2022/10/08 14:40:23;;;;;;;0.70;0.70;;;;;;;;;;5065397;28;20442;-76
2022/10/08 14:42:51;;;;;;;0.80;0.70;;;;;;;;;;5068155;28;20460;-75
2022/10/08 14:45:18;;;;;;;0.70;0.60;;;;;;;;;;5082706;28;20448;-76
2022/10/08 14:47:45;;;;;;;0.80;0.77;;;;;;;;;;5084006;28;20940;-76
2022/10/08 14:50:12;;;;;;;0.80;0.80;;;;;;;;;;5088808;28;20435;-76
2022/10/08 14:52:39;;;;;;;0.80;0.60;;;;;;;;;;5090664;28;20762;-76
2022/10/08 14:55:10;;;;;;;0.80;0.70;;;;;;;;;;5058132;28;20968;-75
2022/10/08 14:57:37;;;;;;;0.80;0.80;;;;;;;;;;5078137;28;20438;-75